sensor_id;sensor_type;location;lat;lon;timestamp;temperature;humidity
10133;DHT22;5106;50.926;7.080;2023-02-10T00:01:05;1.40;83.60
10133;DHT22;5106;50.926;7.080;2023-02-10T00:03:32;1.40;83.50
10133;DHT22;5106;50.926;7.080;2023-02-10T00:05:58;1.40;83.60
10133;DHT22;5106;50.926;7.080;2023-02-10T00:08:24;1.40;83.60
10133;DHT22;5106;50.926;7.080;2023-02-10T00:10:49;1.40;83.50
10133;DHT22;5106;50.926;7.080;2023-02-10T00:13:15;1.40;83.60
10133;DHT22;5106;50.926;7.080;2023-02-10T00:15:40;1.40;83.60
10133;DHT22;5106;50.926;7.080;2023-02-10T00:18:06;1.40;83.60
10133;DHT22;5106;50.926;7.080;2023-02-10T00:20:32;1.40;83.60
10133;DHT22;5106;50.926;7.080;2023-02-10T00:22:57;1.40;83.60
10133;DHT22;5106;50.926;7.080;2023-02-10T00:25:23;1.40;83.60
10133;DHT22;5106;50.926;7.080;2023-02-10T00:27:48;1.50;83.70
10133;DHT22;5106;50.926;7.080;2023-02-10T00:30:14;1.40;83.60
10133;DHT22;5106;50.926;7.080;2023-02-10T00:32:39;1.40;83.60
10133;DHT22;5106;50.926;7.080;2023-02-10T00:35:06;1.50;83.70
10133;DHT22;5106;50.926;7.080;2023-02-10T00:37:33;1.40;83.70
10133;DHT22;5106;50.926;7.080;2023-02-10T00:39:59;1.50;83.70
10133;DHT22;5106;50.926;7.080;2023-02-10T00:42:24;1.40;83.70
10133;DHT22;5106;50.926;7.080;2023-02-10T00:44:50;1.40;83.80
10133;DHT22;5106;50.926;7.080;2023-02-10T00:47:16;1.40;83.80
10133;DHT22;5106;50.926;7.080;2023-02-10T00:49:42;1.40;83.80
10133;DHT22;5106;50.926;7.080;2023-02-10T00:52:08;1.50;83.80
10133;DHT22;5106;50.926;7.080;2023-02-10T00:54:34;1.50;83.80
10133;DHT22;5106;50.926;7.080;2023-02-10T00:57:00;1.50;83.80
10133;DHT22;5106;50.926;7.080;2023-02-10T00:59:25;1.50;83.80
10133;DHT22;5106;50.926;7.080;2023-02-10T01:01:51;1.50;83.80
10133;DHT22;5106;50.926;7.080;2023-02-10T01:04:17;1.50;83.80
10133;DHT22;5106;50.926;7.080;2023-02-10T01:06:43;1.50;83.80
10133;DHT22;5106;50.926;7.080;2023-02-10T01:09:08;1.50;83.80
10133;DHT22;5106;50.926;7.080;2023-02-10T01:11:34;1.50;83.80
10133;DHT22;5106;50.926;7.080;2023-02-10T01:13:59;1.50;83.80
10133;DHT22;5106;50.926;7.080;2023-02-10T01:16:25;1.50;83.80
10133;DHT22;5106;50.926;7.080;2023-02-10T01:18:51;1.50;83.80
10133;DHT22;5106;50.926;7.080;2023-02-10T01:21:19;1.50;83.80
10133;DHT22;5106;50.926;7.080;2023-02-10T01:23:46;1.50;83.80
10133;DHT22;5106;50.926;7.080;2023-02-10T01:26:12;1.50;83.70
10133;DHT22;5106;50.926;7.080;2023-02-10T01:28:41;1.50;83.70
10133;DHT22;5106;50.926;7.080;2023-02-10T01:31:13;1.50;83.70
10133;DHT22;5106;50.926;7.080;2023-02-10T01:33:39;1.50;83.60
10133;DHT22;5106;50.926;7.080;2023-02-10T01:36:09;1.50;83.60
10133;DHT22;5106;50.926;7.080;2023-02-10T01:38:35;1.50;83.60
10133;DHT22;5106;50.926;7.080;2023-02-10T01:41:01;1.50;83.60
10133;DHT22;5106;50.926;7.080;2023-02-10T01:43:27;1.50;83.60
10133;DHT22;5106;50.926;7.080;2023-02-10T01:45:53;1.50;83.60
10133;DHT22;5106;50.926;7.080;2023-02-10T01:48:19;1.40;83.50
10133;DHT22;5106;50.926;7.080;2023-02-10T01:50:53;1.40;83.50
10133;DHT22;5106;50.926;7.080;2023-02-10T01:53:20;1.40;83.50
10133;DHT22;5106;50.926;7.080;2023-02-10T01:55:49;1.40;83.60
10133;DHT22;5106;50.926;7.080;2023-02-10T01:58:18;1.40;83.60
10133;DHT22;5106;50.926;7.080;2023-02-10T02:00:45;1.40;83.60
10133;DHT22;5106;50.926;7.080;2023-02-10T02:03:11;1.40;83.60
10133;DHT22;5106;50.926;7.080;2023-02-10T02:05:40;1.40;83.70
10133;DHT22;5106;50.926;7.080;2023-02-10T02:08:16;1.40;83.70
10133;DHT22;5106;50.926;7.080;2023-02-10T02:10:57;1.40;83.70
10133;DHT22;5106;50.926;7.080;2023-02-10T02:18:55;1.50;83.70
10133;DHT22;5106;50.926;7.080;2023-02-10T02:27:14;1.50;83.70
10133;DHT22;5106;50.926;7.080;2023-02-10T02:32:17;1.50;83.80
10133;DHT22;5106;50.926;7.080;2023-02-10T02:34:51;1.50;83.80
10133;DHT22;5106;50.926;7.080;2023-02-10T02:37:24;1.50;83.80
10133;DHT22;5106;50.926;7.080;2023-02-10T02:39:52;1.50;83.80
10133;DHT22;5106;50.926;7.080;2023-02-10T02:42:26;1.50;83.80
10133;DHT22;5106;50.926;7.080;2023-02-10T02:45:02;1.50;83.80
10133;DHT22;5106;50.926;7.080;2023-02-10T02:48:34;1.50;83.90
10133;DHT22;5106;50.926;7.080;2023-02-10T03:01:13;1.50;83.90
10133;DHT22;5106;50.926;7.080;2023-02-10T03:03:40;1.50;83.90
10133;DHT22;5106;50.926;7.080;2023-02-10T03:06:06;1.50;83.90
10133;DHT22;5106;50.926;7.080;2023-02-10T03:08:33;1.50;83.90
10133;DHT22;5106;50.926;7.080;2023-02-10T03:11:00;1.50;83.90
10133;DHT22;5106;50.926;7.080;2023-02-10T03:13:25;1.50;83.90
10133;DHT22;5106;50.926;7.080;2023-02-10T03:15:51;1.50;83.90
10133;DHT22;5106;50.926;7.080;2023-02-10T03:18:16;1.50;84.00
10133;DHT22;5106;50.926;7.080;2023-02-10T03:20:42;1.50;83.90
10133;DHT22;5106;50.926;7.080;2023-02-10T03:23:09;1.50;83.90
10133;DHT22;5106;50.926;7.080;2023-02-10T03:25:35;1.50;83.90
10133;DHT22;5106;50.926;7.080;2023-02-10T03:28:00;1.50;83.90
10133;DHT22;5106;50.926;7.080;2023-02-10T03:30:26;1.50;83.90
10133;DHT22;5106;50.926;7.080;2023-02-10T03:32:52;1.50;83.90
10133;DHT22;5106;50.926;7.080;2023-02-10T03:35:19;1.50;83.90
10133;DHT22;5106;50.926;7.080;2023-02-10T03:37:44;1.50;83.80
10133;DHT22;5106;50.926;7.080;2023-02-10T03:40:11;1.40;83.90
10133;DHT22;5106;50.926;7.080;2023-02-10T03:42:37;1.40;83.90
10133;DHT22;5106;50.926;7.080;2023-02-10T03:45:03;1.40;83.90
10133;DHT22;5106;50.926;7.080;2023-02-10T03:47:28;1.40;84.00
10133;DHT22;5106;50.926;7.080;2023-02-10T03:49:54;1.30;84.00
10133;DHT22;5106;50.926;7.080;2023-02-10T03:52:19;1.30;84.00
10133;DHT22;5106;50.926;7.080;2023-02-10T03:54:45;1.30;84.00
10133;DHT22;5106;50.926;7.080;2023-02-10T03:57:11;1.30;84.10
10133;DHT22;5106;50.926;7.080;2023-02-10T03:59:37;1.30;84.00
10133;DHT22;5106;50.926;7.080;2023-02-10T04:02:03;1.20;84.00
10133;DHT22;5106;50.926;7.080;2023-02-10T04:04:29;1.20;84.00
10133;DHT22;5106;50.926;7.080;2023-02-10T04:06:55;1.20;83.90
10133;DHT22;5106;50.926;7.080;2023-02-10T04:09:21;1.20;83.90
10133;DHT22;5106;50.926;7.080;2023-02-10T04:11:46;1.10;83.80
10133;DHT22;5106;50.926;7.080;2023-02-10T04:14:12;1.10;83.90
10133;DHT22;5106;50.926;7.080;2023-02-10T04:16:37;1.00;83.90
10133;DHT22;5106;50.926;7.080;2023-02-10T04:19:03;1.00;83.90
10133;DHT22;5106;50.926;7.080;2023-02-10T04:21:29;1.00;83.90
10133;DHT22;5106;50.926;7.080;2023-02-10T04:23:54;0.90;83.80
10133;DHT22;5106;50.926;7.080;2023-02-10T04:26:21;0.90;84.00
10133;DHT22;5106;50.926;7.080;2023-02-10T04:28:47;0.90;84.00
10133;DHT22;5106;50.926;7.080;2023-02-10T04:31:13;0.80;84.00
10133;DHT22;5106;50.926;7.080;2023-02-10T04:33:39;0.80;84.00
10133;DHT22;5106;50.926;7.080;2023-02-10T04:36:05;0.70;84.00
10133;DHT22;5106;50.926;7.080;2023-02-10T04:38:31;0.70;84.10
10133;DHT22;5106;50.926;7.080;2023-02-10T04:40:56;0.60;84.00
10133;DHT22;5106;50.926;7.080;2023-02-10T04:43:22;0.60;84.10
10133;DHT22;5106;50.926;7.080;2023-02-10T04:45:47;0.50;84.00
10133;DHT22;5106;50.926;7.080;2023-02-10T04:48:13;0.50;84.10
10133;DHT22;5106;50.926;7.080;2023-02-10T04:50:40;0.50;84.10
10133;DHT22;5106;50.926;7.080;2023-02-10T04:53:06;0.50;84.10
10133;DHT22;5106;50.926;7.080;2023-02-10T04:55:32;0.50;84.10
10133;DHT22;5106;50.926;7.080;2023-02-10T04:57:58;0.40;84.10
10133;DHT22;5106;50.926;7.080;2023-02-10T05:00:24;0.40;84.00
10133;DHT22;5106;50.926;7.080;2023-02-10T05:02:50;0.30;84.00
10133;DHT22;5106;50.926;7.080;2023-02-10T05:05:15;0.30;84.00
10133;DHT22;5106;50.926;7.080;2023-02-10T05:07:41;0.20;84.00
10133;DHT22;5106;50.926;7.080;2023-02-10T05:10:07;0.20;84.10
10133;DHT22;5106;50.926;7.080;2023-02-10T05:12:33;0.10;84.00
10133;DHT22;5106;50.926;7.080;2023-02-10T05:14:59;0.10;84.00
10133;DHT22;5106;50.926;7.080;2023-02-10T05:17:25;0.10;84.10
10133;DHT22;5106;50.926;7.080;2023-02-10T05:19:50;0.00;84.10
10133;DHT22;5106;50.926;7.080;2023-02-10T05:22:16;0.00;84.00
10133;DHT22;5106;50.926;7.080;2023-02-10T05:24:41;0.00;84.00
10133;DHT22;5106;50.926;7.080;2023-02-10T05:27:08;-0.10;84.00
10133;DHT22;5106;50.926;7.080;2023-02-10T05:29:33;-0.10;84.10
10133;DHT22;5106;50.926;7.080;2023-02-10T05:31:59;-0.10;84.10
10133;DHT22;5106;50.926;7.080;2023-02-10T05:34:24;-0.10;84.20
10133;DHT22;5106;50.926;7.080;2023-02-10T05:36:52;-0.20;84.10
10133;DHT22;5106;50.926;7.080;2023-02-10T05:39:17;-0.20;84.10
10133;DHT22;5106;50.926;7.080;2023-02-10T05:41:53;-0.30;84.20
10133;DHT22;5106;50.926;7.080;2023-02-10T05:44:19;-0.30;84.20
10133;DHT22;5106;50.926;7.080;2023-02-10T05:46:45;-0.30;84.30
10133;DHT22;5106;50.926;7.080;2023-02-10T05:49:11;-0.30;84.30
10133;DHT22;5106;50.926;7.080;2023-02-10T05:51:37;-0.30;84.40
10133;DHT22;5106;50.926;7.080;2023-02-10T05:54:02;-0.30;84.30
10133;DHT22;5106;50.926;7.080;2023-02-10T05:56:28;-0.30;84.30
10133;DHT22;5106;50.926;7.080;2023-02-10T05:58:55;-0.40;84.40
10133;DHT22;5106;50.926;7.080;2023-02-10T06:01:21;-0.40;84.40
10133;DHT22;5106;50.926;7.080;2023-02-10T06:03:46;-0.40;84.40
10133;DHT22;5106;50.926;7.080;2023-02-10T06:06:12;-0.40;84.40
10133;DHT22;5106;50.926;7.080;2023-02-10T06:08:38;-0.40;84.30
10133;DHT22;5106;50.926;7.080;2023-02-10T06:11:03;-0.50;84.30
10133;DHT22;5106;50.926;7.080;2023-02-10T06:13:29;-0.50;84.30
10133;DHT22;5106;50.926;7.080;2023-02-10T06:15:55;-0.50;84.40
10133;DHT22;5106;50.926;7.080;2023-02-10T06:18:20;-0.50;84.40
10133;DHT22;5106;50.926;7.080;2023-02-10T06:20:46;-0.50;84.40
10133;DHT22;5106;50.926;7.080;2023-02-10T06:23:13;-0.50;84.40
10133;DHT22;5106;50.926;7.080;2023-02-10T06:25:38;-0.60;84.40
10133;DHT22;5106;50.926;7.080;2023-02-10T06:28:04;-0.60;84.40
10133;DHT22;5106;50.926;7.080;2023-02-10T06:30:30;-0.60;84.50
10133;DHT22;5106;50.926;7.080;2023-02-10T06:32:55;-0.60;84.40
10133;DHT22;5106;50.926;7.080;2023-02-10T06:35:21;-0.60;84.40
10133;DHT22;5106;50.926;7.080;2023-02-10T06:37:47;-0.70;84.40
10133;DHT22;5106;50.926;7.080;2023-02-10T06:40:13;-0.70;84.30
10133;DHT22;5106;50.926;7.080;2023-02-10T06:42:39;-0.80;84.40
10133;DHT22;5106;50.926;7.080;2023-02-10T06:45:05;-0.80;84.50
10133;DHT22;5106;50.926;7.080;2023-02-10T06:47:31;-0.80;84.60
10133;DHT22;5106;50.926;7.080;2023-02-10T06:49:57;-0.70;84.60
10133;DHT22;5106;50.926;7.080;2023-02-10T06:52:22;-0.70;84.60
10133;DHT22;5106;50.926;7.080;2023-02-10T06:54:50;-0.80;84.60
10133;DHT22;5106;50.926;7.080;2023-02-10T06:57:15;-0.80;84.60
10133;DHT22;5106;50.926;7.080;2023-02-10T06:59:41;-0.80;84.60
10133;DHT22;5106;50.926;7.080;2023-02-10T07:02:08;-0.80;84.60
10133;DHT22;5106;50.926;7.080;2023-02-10T07:04:35;-0.80;84.50
10133;DHT22;5106;50.926;7.080;2023-02-10T07:07:01;-0.90;84.50
10133;DHT22;5106;50.926;7.080;2023-02-10T07:09:26;-0.90;84.50
10133;DHT22;5106;50.926;7.080;2023-02-10T07:11:52;-0.90;84.60
10133;DHT22;5106;50.926;7.080;2023-02-10T07:14:18;-0.90;84.60
10133;DHT22;5106;50.926;7.080;2023-02-10T07:16:43;-0.90;84.70
10133;DHT22;5106;50.926;7.080;2023-02-10T07:19:09;-0.80;84.70
10133;DHT22;5106;50.926;7.080;2023-02-10T07:21:35;-0.80;84.70
10133;DHT22;5106;50.926;7.080;2023-02-10T07:24:02;-0.80;84.70
10133;DHT22;5106;50.926;7.080;2023-02-10T07:26:28;-0.80;84.70
10133;DHT22;5106;50.926;7.080;2023-02-10T07:28:54;-0.80;84.70
10133;DHT22;5106;50.926;7.080;2023-02-10T07:31:19;-0.80;84.70
10133;DHT22;5106;50.926;7.080;2023-02-10T07:33:45;-0.80;84.80
10133;DHT22;5106;50.926;7.080;2023-02-10T07:36:11;-0.70;84.80
10133;DHT22;5106;50.926;7.080;2023-02-10T07:38:37;-0.70;84.80
10133;DHT22;5106;50.926;7.080;2023-02-10T07:41:04;-0.60;84.90
10133;DHT22;5106;50.926;7.080;2023-02-10T07:43:30;-0.60;84.90
10133;DHT22;5106;50.926;7.080;2023-02-10T07:45:56;-0.50;84.80
10133;DHT22;5106;50.926;7.080;2023-02-10T07:48:21;-0.50;84.80
10133;DHT22;5106;50.926;7.080;2023-02-10T07:50:47;-0.40;84.90
10133;DHT22;5106;50.926;7.080;2023-02-10T07:53:13;-0.30;84.90
10133;DHT22;5106;50.926;7.080;2023-02-10T07:55:39;-0.30;85.00
10133;DHT22;5106;50.926;7.080;2023-02-10T07:58:05;-0.20;85.00
10133;DHT22;5106;50.926;7.080;2023-02-10T08:00:31;-0.10;85.00
10133;DHT22;5106;50.926;7.080;2023-02-10T08:02:57;-0.10;85.10
10133;DHT22;5106;50.926;7.080;2023-02-10T08:05:22;0.00;85.10
10133;DHT22;5106;50.926;7.080;2023-02-10T08:07:48;0.00;85.10
10133;DHT22;5106;50.926;7.080;2023-02-10T08:10:14;0.10;85.10
10133;DHT22;5106;50.926;7.080;2023-02-10T08:12:40;0.20;85.10
10133;DHT22;5106;50.926;7.080;2023-02-10T08:15:07;0.20;85.10
10133;DHT22;5106;50.926;7.080;2023-02-10T08:17:33;0.30;85.20
10133;DHT22;5106;50.926;7.080;2023-02-10T08:19:59;0.30;85.20
10133;DHT22;5106;50.926;7.080;2023-02-10T08:22:24;0.40;85.20
10133;DHT22;5106;50.926;7.080;2023-02-10T08:24:50;0.40;85.20
10133;DHT22;5106;50.926;7.080;2023-02-10T08:27:16;0.50;85.20
10133;DHT22;5106;50.926;7.080;2023-02-10T08:29:41;0.50;85.30
10133;DHT22;5106;50.926;7.080;2023-02-10T08:32:07;0.60;85.20
10133;DHT22;5106;50.926;7.080;2023-02-10T08:34:33;0.60;85.20
10133;DHT22;5106;50.926;7.080;2023-02-10T08:36:59;0.70;85.40
10133;DHT22;5106;50.926;7.080;2023-02-10T08:39:27;0.70;85.40
10133;DHT22;5106;50.926;7.080;2023-02-10T08:41:53;0.80;85.30
10133;DHT22;5106;50.926;7.080;2023-02-10T08:44:19;0.90;85.40
10133;DHT22;5106;50.926;7.080;2023-02-10T08:46:45;0.90;85.40
10133;DHT22;5106;50.926;7.080;2023-02-10T08:49:10;1.00;85.50
10133;DHT22;5106;50.926;7.080;2023-02-10T08:51:37;1.10;85.40
10133;DHT22;5106;50.926;7.080;2023-02-10T08:54:04;1.10;85.40
10133;DHT22;5106;50.926;7.080;2023-02-10T08:56:30;1.20;85.50
10133;DHT22;5106;50.926;7.080;2023-02-10T08:58:56;1.30;85.40
10133;DHT22;5106;50.926;7.080;2023-02-10T09:01:24;1.30;85.30
10133;DHT22;5106;50.926;7.080;2023-02-10T09:03:54;1.30;85.30
10133;DHT22;5106;50.926;7.080;2023-02-10T09:06:27;1.40;85.30
10133;DHT22;5106;50.926;7.080;2023-02-10T09:08:53;1.50;85.30
10133;DHT22;5106;50.926;7.080;2023-02-10T09:11:20;1.50;85.30
10133;DHT22;5106;50.926;7.080;2023-02-10T09:13:48;1.60;85.40
10133;DHT22;5106;50.926;7.080;2023-02-10T09:16:14;1.60;85.30
10133;DHT22;5106;50.926;7.080;2023-02-10T09:18:39;1.70;85.30
10133;DHT22;5106;50.926;7.080;2023-02-10T09:21:05;1.80;85.40
10133;DHT22;5106;50.926;7.080;2023-02-10T09:23:30;1.80;85.30
10133;DHT22;5106;50.926;7.080;2023-02-10T09:25:58;1.90;85.20
10133;DHT22;5106;50.926;7.080;2023-02-10T09:28:24;2.00;85.20
10133;DHT22;5106;50.926;7.080;2023-02-10T09:30:50;2.10;85.30
10133;DHT22;5106;50.926;7.080;2023-02-10T09:33:16;2.20;85.20
10133;DHT22;5106;50.926;7.080;2023-02-10T09:35:42;2.20;85.20
10133;DHT22;5106;50.926;7.080;2023-02-10T09:38:09;2.30;85.00
10133;DHT22;5106;50.926;7.080;2023-02-10T09:49:43;2.60;84.60
10133;DHT22;5106;50.926;7.080;2023-02-10T09:55:45;2.80;84.30
10133;DHT22;5106;50.926;7.080;2023-02-10T09:58:13;2.90;84.30
10133;DHT22;5106;50.926;7.080;2023-02-10T10:00:43;3.10;84.20
10133;DHT22;5106;50.926;7.080;2023-02-10T10:03:19;3.10;84.00
10133;DHT22;5106;50.926;7.080;2023-02-10T10:06:02;3.30;83.90
10133;DHT22;5106;50.926;7.080;2023-02-10T10:14:22;3.50;83.30
10133;DHT22;5106;50.926;7.080;2023-02-10T10:31:14;4.30;82.40
10133;DHT22;5106;50.926;7.080;2023-02-10T10:34:00;4.30;82.00
10133;DHT22;5106;50.926;7.080;2023-02-10T10:39:12;4.60;81.60
10133;DHT22;5106;50.926;7.080;2023-02-10T10:41:41;4.70;81.60
10133;DHT22;5106;50.926;7.080;2023-02-10T10:44:07;4.90;81.50
10133;DHT22;5106;50.926;7.080;2023-02-10T10:46:47;5.00;80.80
10133;DHT22;5106;50.926;7.080;2023-02-10T10:49:15;5.10;80.60
10133;DHT22;5106;50.926;7.080;2023-02-10T10:51:42;5.30;80.60
10133;DHT22;5106;50.926;7.080;2023-02-10T10:54:16;5.40;80.40
10133;DHT22;5106;50.926;7.080;2023-02-10T10:59:36;5.60;80.00
10133;DHT22;5106;50.926;7.080;2023-02-10T11:02:20;5.80;79.60
10133;DHT22;5106;50.926;7.080;2023-02-10T11:05:00;5.90;79.20
10133;DHT22;5106;50.926;7.080;2023-02-10T11:07:26;6.00;78.90
10133;DHT22;5106;50.926;7.080;2023-02-10T11:09:54;6.10;78.80
10133;DHT22;5106;50.926;7.080;2023-02-10T11:14:48;6.20;78.50
10133;DHT22;5106;50.926;7.080;2023-02-10T11:20:02;6.50;78.00
10133;DHT22;5106;50.926;7.080;2023-02-10T11:22:27;6.60;77.70
10133;DHT22;5106;50.926;7.080;2023-02-10T11:25:23;6.60;77.30
10133;DHT22;5106;50.926;7.080;2023-02-10T11:27:55;6.70;77.20
10133;DHT22;5106;50.926;7.080;2023-02-10T11:30:42;6.80;77.00
10133;DHT22;5106;50.926;7.080;2023-02-10T11:33:23;7.00;77.20
10133;DHT22;5106;50.926;7.080;2023-02-10T11:35:53;7.00;76.30
10133;DHT22;5106;50.926;7.080;2023-02-10T11:38:22;7.10;76.50
10133;DHT22;5106;50.926;7.080;2023-02-10T11:40:55;7.20;76.40
10133;DHT22;5106;50.926;7.080;2023-02-10T11:43:34;7.30;76.50
10133;DHT22;5106;50.926;7.080;2023-02-10T11:46:03;7.20;75.20
10133;DHT22;5106;50.926;7.080;2023-02-10T11:48:30;7.20;75.10
10133;DHT22;5106;50.926;7.080;2023-02-10T11:51:19;7.20;75.00
10133;DHT22;5106;50.926;7.080;2023-02-10T11:53:46;7.30;75.50
10133;DHT22;5106;50.926;7.080;2023-02-10T11:59:35;7.40;75.40
10133;DHT22;5106;50.926;7.080;2023-02-10T12:05:27;7.40;75.10
10133;DHT22;5106;50.926;7.080;2023-02-10T12:08:36;7.50;75.40
10133;DHT22;5106;50.926;7.080;2023-02-10T12:10:47;7.60;75.00
10133;DHT22;5106;50.926;7.080;2023-02-10T12:16:12;7.70;75.00
10133;DHT22;5106;50.926;7.080;2023-02-10T12:18:50;7.70;75.60
10133;DHT22;5106;50.926;7.080;2023-02-10T12:26:48;7.80;75.20
10133;DHT22;5106;50.926;7.080;2023-02-10T12:29:37;7.80;74.90
10133;DHT22;5106;50.926;7.080;2023-02-10T12:37:45;7.70;75.10
10133;DHT22;5106;50.926;7.080;2023-02-10T12:40:49;7.70;74.10
10133;DHT22;5106;50.926;7.080;2023-02-10T12:46:00;7.80;73.60
10133;DHT22;5106;50.926;7.080;2023-02-10T12:49:03;7.80;73.20
10133;DHT22;5106;50.926;7.080;2023-02-10T12:54:24;7.80;74.30
10133;DHT22;5106;50.926;7.080;2023-02-10T12:57:55;7.90;73.50
10133;DHT22;5106;50.926;7.080;2023-02-10T13:02:40;7.90;73.10
10133;DHT22;5106;50.926;7.080;2023-02-10T13:05:15;7.90;73.10
10133;DHT22;5106;50.926;7.080;2023-02-10T13:07:50;7.80;73.60
10133;DHT22;5106;50.926;7.080;2023-02-10T13:10:36;7.80;73.60
10133;DHT22;5106;50.926;7.080;2023-02-10T13:13:22;7.80;73.30
10133;DHT22;5106;50.926;7.080;2023-02-10T13:16:37;7.80;73.60
10133;DHT22;5106;50.926;7.080;2023-02-10T13:19:12;7.90;73.00
10133;DHT22;5106;50.926;7.080;2023-02-10T13:27:30;8.30;71.00
10133;DHT22;5106;50.926;7.080;2023-02-10T13:35:13;8.60;69.70
10133;DHT22;5106;50.926;7.080;2023-02-10T13:37:47;8.60;69.40
10133;DHT22;5106;50.926;7.080;2023-02-10T13:40:22;8.60;68.20
10133;DHT22;5106;50.926;7.080;2023-02-10T13:42:50;8.60;68.00
10133;DHT22;5106;50.926;7.080;2023-02-10T13:45:20;8.70;68.40
10133;DHT22;5106;50.926;7.080;2023-02-10T13:52:59;8.70;68.80
10133;DHT22;5106;50.926;7.080;2023-02-10T13:55:45;8.80;68.80
10133;DHT22;5106;50.926;7.080;2023-02-10T14:00:46;8.70;68.50
10133;DHT22;5106;50.926;7.080;2023-02-10T14:05:50;8.60;68.20
10133;DHT22;5106;50.926;7.080;2023-02-10T14:08:39;8.60;69.00
10133;DHT22;5106;50.926;7.080;2023-02-10T14:13:58;8.60;68.20
10133;DHT22;5106;50.926;7.080;2023-02-10T14:16:31;8.60;68.20
10133;DHT22;5106;50.926;7.080;2023-02-10T14:19:03;8.70;68.00
10133;DHT22;5106;50.926;7.080;2023-02-10T14:21:43;8.80;68.00
10133;DHT22;5106;50.926;7.080;2023-02-10T14:24:21;8.90;68.00
10133;DHT22;5106;50.926;7.080;2023-02-10T14:26:49;8.90;68.10
10133;DHT22;5106;50.926;7.080;2023-02-10T14:29:17;8.80;67.00
10133;DHT22;5106;50.926;7.080;2023-02-10T14:31:48;8.80;68.20
10133;DHT22;5106;50.926;7.080;2023-02-10T14:34:25;8.80;67.80
10133;DHT22;5106;50.926;7.080;2023-02-10T14:39:21;8.80;67.30
10133;DHT22;5106;50.926;7.080;2023-02-10T14:41:47;8.70;67.60
10133;DHT22;5106;50.926;7.080;2023-02-10T14:44:40;8.70;68.00
10133;DHT22;5106;50.926;7.080;2023-02-10T14:47:25;8.60;67.90
10133;DHT22;5106;50.926;7.080;2023-02-10T14:49:55;8.50;68.00
10133;DHT22;5106;50.926;7.080;2023-02-10T14:52:25;8.50;68.30
10133;DHT22;5106;50.926;7.080;2023-02-10T14:54:50;8.40;68.10
10133;DHT22;5106;50.926;7.080;2023-02-10T14:57:19;8.50;68.10
10133;DHT22;5106;50.926;7.080;2023-02-10T14:59:52;8.50;68.00
10133;DHT22;5106;50.926;7.080;2023-02-10T15:02:28;8.50;68.00
10133;DHT22;5106;50.926;7.080;2023-02-10T15:04:56;8.50;68.30
10133;DHT22;5106;50.926;7.080;2023-02-10T15:07:30;8.50;68.40
10133;DHT22;5106;50.926;7.080;2023-02-10T15:09:58;8.60;68.20
10133;DHT22;5106;50.926;7.080;2023-02-10T15:12:25;8.60;68.40
10133;DHT22;5106;50.926;7.080;2023-02-10T15:15:02;8.70;68.00
10133;DHT22;5106;50.926;7.080;2023-02-10T15:17:50;8.80;68.00
10133;DHT22;5106;50.926;7.080;2023-02-10T15:20:29;8.90;67.80
10133;DHT22;5106;50.926;7.080;2023-02-10T15:27:56;8.80;67.50
10133;DHT22;5106;50.926;7.080;2023-02-10T15:30:25;8.70;67.80
10133;DHT22;5106;50.926;7.080;2023-02-10T15:32:58;8.60;67.90
10133;DHT22;5106;50.926;7.080;2023-02-10T15:35:24;8.60;68.00
10133;DHT22;5106;50.926;7.080;2023-02-10T15:37:56;8.50;68.00
10133;DHT22;5106;50.926;7.080;2023-02-10T15:40:26;8.50;68.30
10133;DHT22;5106;50.926;7.080;2023-02-10T15:43:03;8.40;68.50
10133;DHT22;5106;50.926;7.080;2023-02-10T15:45:29;8.40;68.60
10133;DHT22;5106;50.926;7.080;2023-02-10T15:48:05;8.30;68.90
10133;DHT22;5106;50.926;7.080;2023-02-10T15:50:32;8.20;68.90
10133;DHT22;5106;50.926;7.080;2023-02-10T15:52:59;8.20;69.00
10133;DHT22;5106;50.926;7.080;2023-02-10T15:55:31;8.10;69.20
10133;DHT22;5106;50.926;7.080;2023-02-10T15:57:58;8.00;69.40
10133;DHT22;5106;50.926;7.080;2023-02-10T16:00:26;8.00;69.50
10133;DHT22;5106;50.926;7.080;2023-02-10T16:02:53;8.00;69.80
10133;DHT22;5106;50.926;7.080;2023-02-10T16:05:19;7.90;69.90
10133;DHT22;5106;50.926;7.080;2023-02-10T16:07:44;7.90;69.80
10133;DHT22;5106;50.926;7.080;2023-02-10T16:10:24;7.80;70.00
10133;DHT22;5106;50.926;7.080;2023-02-10T16:12:50;7.80;70.10
10133;DHT22;5106;50.926;7.080;2023-02-10T16:15:19;7.80;70.20
10133;DHT22;5106;50.926;7.080;2023-02-10T16:17:47;7.70;70.50
10133;DHT22;5106;50.926;7.080;2023-02-10T16:20:34;7.60;70.70
10133;DHT22;5106;50.926;7.080;2023-02-10T16:23:00;7.50;70.80
10133;DHT22;5106;50.926;7.080;2023-02-10T16:25:27;7.40;71.00
10133;DHT22;5106;50.926;7.080;2023-02-10T16:27:53;7.30;71.20
10133;DHT22;5106;50.926;7.080;2023-02-10T16:30:25;7.30;71.50
10133;DHT22;5106;50.926;7.080;2023-02-10T16:32:52;7.20;71.80
10133;DHT22;5106;50.926;7.080;2023-02-10T16:35:18;7.10;72.20
10133;DHT22;5106;50.926;7.080;2023-02-10T16:37:44;7.00;72.50
10133;DHT22;5106;50.926;7.080;2023-02-10T16:40:27;6.90;72.80
10133;DHT22;5106;50.926;7.080;2023-02-10T16:42:53;6.80;73.10
10133;DHT22;5106;50.926;7.080;2023-02-10T16:45:21;6.70;73.40
10133;DHT22;5106;50.926;7.080;2023-02-10T16:47:46;6.60;73.50
10133;DHT22;5106;50.926;7.080;2023-02-10T16:52:46;6.40;74.20
10133;DHT22;5106;50.926;7.080;2023-02-10T16:55:12;6.30;74.50
10133;DHT22;5106;50.926;7.080;2023-02-10T16:57:37;6.20;74.80
10133;DHT22;5106;50.926;7.080;2023-02-10T17:00:04;6.10;75.00
10133;DHT22;5106;50.926;7.080;2023-02-10T17:02:31;6.00;75.10
10133;DHT22;5106;50.926;7.080;2023-02-10T17:04:57;5.90;75.40
10133;DHT22;5106;50.926;7.080;2023-02-10T17:07:23;5.80;75.70
10133;DHT22;5106;50.926;7.080;2023-02-10T17:09:48;5.70;76.00
10133;DHT22;5106;50.926;7.080;2023-02-10T17:12:14;5.70;76.00
10133;DHT22;5106;50.926;7.080;2023-02-10T17:14:39;5.60;76.20
10133;DHT22;5106;50.926;7.080;2023-02-10T17:17:05;5.50;76.60
10133;DHT22;5106;50.926;7.080;2023-02-10T17:19:31;5.50;76.60
10133;DHT22;5106;50.926;7.080;2023-02-10T17:21:58;5.40;76.70
10133;DHT22;5106;50.926;7.080;2023-02-10T17:24:24;5.40;76.80
10133;DHT22;5106;50.926;7.080;2023-02-10T17:26:49;5.30;76.90
10133;DHT22;5106;50.926;7.080;2023-02-10T17:29:17;5.20;77.20
10133;DHT22;5106;50.926;7.080;2023-02-10T17:31:43;5.20;77.30
10133;DHT22;5106;50.926;7.080;2023-02-10T17:34:09;5.10;77.30
10133;DHT22;5106;50.926;7.080;2023-02-10T17:36:35;5.00;77.40
10133;DHT22;5106;50.926;7.080;2023-02-10T17:39:01;4.90;77.60
10133;DHT22;5106;50.926;7.080;2023-02-10T17:41:28;4.80;77.80
10133;DHT22;5106;50.926;7.080;2023-02-10T17:43:56;4.80;78.10
10133;DHT22;5106;50.926;7.080;2023-02-10T17:46:23;4.70;78.20
10133;DHT22;5106;50.926;7.080;2023-02-10T17:48:49;4.70;78.40
10133;DHT22;5106;50.926;7.080;2023-02-10T17:51:20;4.60;78.60
10133;DHT22;5106;50.926;7.080;2023-02-10T17:53:47;4.60;78.60
10133;DHT22;5106;50.926;7.080;2023-02-10T17:56:14;4.50;78.80
10133;DHT22;5106;50.926;7.080;2023-02-10T17:58:40;4.50;78.80
10133;DHT22;5106;50.926;7.080;2023-02-10T18:01:06;4.40;79.00
10133;DHT22;5106;50.926;7.080;2023-02-10T18:03:31;4.40;78.90
10133;DHT22;5106;50.926;7.080;2023-02-10T18:05:58;4.30;79.00
10133;DHT22;5106;50.926;7.080;2023-02-10T18:08:27;4.20;79.10
10133;DHT22;5106;50.926;7.080;2023-02-10T18:10:53;4.20;79.20
10133;DHT22;5106;50.926;7.080;2023-02-10T18:13:18;4.10;79.30
10133;DHT22;5106;50.926;7.080;2023-02-10T18:15:44;4.00;79.30
10133;DHT22;5106;50.926;7.080;2023-02-10T18:18:11;4.00;79.60
10133;DHT22;5106;50.926;7.080;2023-02-10T18:20:40;3.90;79.90